Share

El Campo, TX (77437)

FM1160 (KTXLOUIS2) Elev 102 ft | 29.20 °N, 96.40 °W | Change Station

Current weather conditions updated 4 minutes ago

Overcast
Overcast
68.7 °F
Feels Like 68.7 °F
N
7.6
Wind Variable Wind from ENE
Gusts 11.0 mph
Sunrise 6:56 AM
Sunset 7:52 PM
Moon Waning Gibbous

Today is forecast to be nearly the same temperature as yesterday. Scattered thunderstorms possible.

Pressure 30.08 in
Visibility 10.0 miles
Clouds Scattered Clouds 3800 ft
Overcast 4400 ft
Dew Point 62 °F
Humidity 78%
Rainfall 0.00 in
Snow Depth Not available.
UV 3 out of 16
Pollen 7.70 out of 12
Air Quality Not available.
Flu Activity Local Activity
METAR KARM 171915Z AUTO 08009KT 10SM SCT038 OVC044 21/15 A3008 RMK AO2 T02100153

More Conditions Fewer Conditions

Pressure 30.08 in
Visibility 10.0 miles
Clouds Scattered Clouds 3800 ft
Overcast 4400 ft
Dew Point 62 °F
Humidity 78%
Rainfall 0.00 in
Snow Depth Not available.
UV 3 out of 16
Pollen 7.70 out of 12
Air Quality Not available.
Flu Activity Local Activity
METAR KARM 171915Z AUTO 08009KT 10SM SCT038 OVC044 21/15 A3008 RMK AO2 T02100153

More Conditions Fewer Conditions

10-Day Forecast

Almanac

Astronomy

Apr. 17, 2014 Rise Set
Actual Time 6:56 AM CDT 7:52 PM CDT
Civil Twilight 6:32 AM CDT 8:17 PM CDT
Nautical Twilight 6:03 AM CDT 8:46 PM CDT
Astronomical Twilight 5:34 AM CDT 9:15 PM CDT
Moon 10:30 PM CDT 8:37 AM CDT
Length of Visible Light 13h 44m
Length of Day
12h 55m
Tomorrow will be 1m 39s longer.
Waning Gibbous, 93% of the Moon is Illuminated
Today
Waning Gibbous
Apr 22
Last Quarter
Apr 29
New
May 6
First Quarter
May 14
Full

Today's Extremes

State Highs State Lows

Community

  • New Day
    New Day
  • Lake Michigan Sunrise
    Lake Michigan Sunrise
  • sunset from izmir, narlıdere
    sunset from izmir, narlıdere
  • oregon cherry
    oregon cherry
  • Sunset over the Bay
    Sunset over the Bay

WunderPhotos

Upload Photos

1,702,107 photos uploaded!

Nearby

Snow Depth

Station Depth Elevation
No new snow has been reported.

Coastal Water Temperatures

Place Temperature
No Stations Reporting

Earthquake Activity

City Distance Mag. Time & Date
No recent earthquake activity has been reported nearby.
Minimum magnitude displayed is 2.5.

Nearby Weather Stations

Station Location Temp. Dew Point Humidity Wind Precip. Elev Updated Type
FM1160, Louise, TX 68.7 °F 62 °F 78% ENE  at  7.6 mph 0.00 in / hr 102 ft 2:28 PM CDT Normal
K5HAS Lake Texana, Edna, TX 69.8 °F 63 °F 78% East  at  4.9 mph 0.00 in / hr 59 ft 2:33 PM CDT Rapid Fire

Show More Stations Show Fewer Stations

What do you think?

We're not finished. Please let us know what you like, what you don't like, and what you are still missing.